Time;durP1;ratioP1;P1;durP2;ratioP2;P2;SDS_P1;SDS_P2;PMS_P1;PMS_P2;Temp;Humidity;BMP_temperature;BMP_pressure;BME280_temperature;BME280_humidity;BME280_pressure;Samples;Min_cycle;Max_cycle;Signal;HPM_P1;HPM_P2
2021/12/19 00:00:18;;;;;;;9.40;3.05;;;6.90;95.80;;;;;;4996724;28;20490;-71
2021/12/19 00:03:02;;;;;;;7.13;2.90;;;6.80;95.90;;;;;;5004491;28;20051;-71
2021/12/19 00:08:43;;;;;;;9.13;2.80;;;6.80;96.30;;;;;;5001927;28;20217;-71
2021/12/19 00:11:08;;;;;;;8.52;3.00;;;6.80;96.10;;;;;;5002603;28;20653;-71
2021/12/19 00:13:34;;;;;;;12.35;3.45;;;6.80;95.90;;;;;;4995716;28;20057;-72
2021/12/19 00:15:59;;;;;;;10.52;3.20;;;6.80;96.00;;;;;;4999900;28;20088;-71
2021/12/19 00:18:25;;;;;;;9.80;3.33;;;6.90;96.00;;;;;;4968295;28;20049;-71
2021/12/19 00:20:50;;;;;;;14.18;4.13;;;6.80;96.10;;;;;;4998089;28;20101;-71
2021/12/19 00:23:17;;;;;;;11.75;3.60;;;6.80;96.20;;;;;;4992979;28;20430;-71
2021/12/19 00:25:43;;;;;;;12.30;3.65;;;6.80;96.30;;;;;;4996654;28;20060;-70
2021/12/19 00:28:09;;;;;;;12.07;4.07;;;6.80;96.30;;;;;;4991710;28;20106;-71
2021/12/19 00:30:34;;;;;;;9.30;3.40;;;6.80;96.30;;;;;;4994046;28;20108;-72
2021/12/19 00:33:00;;;;;;;13.05;3.97;;;6.80;96.40;;;;;;4991511;28;20114;-71
2021/12/19 00:35:26;;;;;;;9.90;3.83;;;6.80;95.70;;;;;;4998828;28;20583;-71
2021/12/19 00:37:52;;;;;;;8.95;3.88;;;6.80;95.60;;;;;;4994875;28;20102;-71
2021/12/19 00:40:19;;;;;;;15.30;4.03;;;6.90;95.70;;;;;;4999233;28;20114;-71
2021/12/19 00:42:51;;;;;;;11.93;4.05;;;6.90;95.80;;;;;;5003551;28;20164;-71
2021/12/19 00:45:26;;;;;;;11.55;4.18;;;6.90;95.80;;;;;;4979364;28;20171;-71
2021/12/19 00:47:52;;;;;;;12.68;4.65;;;6.90;95.90;;;;;;4993686;28;20030;-71
2021/12/19 00:50:19;;;;;;;13.00;4.07;;;6.80;95.80;;;;;;4997263;28;20037;-71
2021/12/19 00:52:46;;;;;;;16.58;4.07;;;6.90;95.70;;;;;;4996074;28;20321;-71
2021/12/19 00:55:13;;;;;;;11.63;4.07;;;6.90;95.70;;;;;;4999649;28;20096;-71
2021/12/19 00:57:38;;;;;;;10.23;4.03;;;6.90;95.30;;;;;;4999304;28;20033;-72
2021/12/19 01:00:05;;;;;;;7.43;3.33;;;6.90;95.30;;;;;;5002530;28;20030;-71
2021/12/19 01:02:31;;;;;;;14.65;3.53;;;6.90;95.10;;;;;;4993071;28;20080;-71
2021/12/19 01:04:56;;;;;;;14.07;3.83;;;6.90;95.30;;;;;;4996426;28;20037;-71
2021/12/19 01:07:22;;;;;;;10.75;3.65;;;7.00;95.40;;;;;;5004174;28;20040;-71
2021/12/19 01:09:47;;;;;;;11.57;3.72;;;7.00;95.50;;;;;;5009621;28;20038;-71
2021/12/19 01:12:13;;;;;;;10.55;4.15;;;6.90;95.50;;;;;;5015041;28;20033;-71
2021/12/19 01:14:38;;;;;;;12.77;3.95;;;6.90;95.60;;;;;;4991762;28;20180;-71
2021/12/19 01:17:05;;;;;;;12.02;3.88;;;6.90;95.60;;;;;;4969197;28;20046;-71
2021/12/19 01:19:31;;;;;;;11.55;3.78;;;7.00;95.30;;;;;;4995412;28;20033;-71
2021/12/19 01:21:56;;;;;;;10.80;3.78;;;7.00;95.00;;;;;;4989795;28;20145;-71
2021/12/19 01:24:22;;;;;;;18.63;4.65;;;7.00;95.00;;;;;;4995535;28;20108;-71
2021/12/19 01:26:47;;;;;;;13.30;4.55;;;7.00;94.80;;;;;;4999623;28;20432;-71
2021/12/19 01:29:13;;;;;;;12.15;3.50;;;6.90;95.00;;;;;;4998184;28;20030;-71
2021/12/19 01:31:39;;;;;;;13.75;3.83;;;7.00;95.20;;;;;;4997842;28;20157;-71
2021/12/19 01:34:05;;;;;;;14.35;3.88;;;6.90;95.30;;;;;;4994045;28;20033;-71
2021/12/19 01:36:30;;;;;;;11.40;3.72;;;6.90;95.20;;;;;;5008454;28;20059;-71
2021/12/19 01:38:56;;;;;;;10.32;3.03;;;6.90;95.30;;;;;;4994504;28;20354;-72
2021/12/19 01:41:22;;;;;;;10.23;3.78;;;6.90;95.20;;;;;;4993136;28;20417;-71
2021/12/19 01:43:48;;;;;;;11.38;3.50;;;6.90;95.00;;;;;;4989763;28;20078;-71
2021/12/19 01:46:14;;;;;;;11.13;2.95;;;6.90;95.00;;;;;;4995158;28;20033;-72
2021/12/19 01:48:40;;;;;;;11.65;3.55;;;6.90;94.90;;;;;;4996463;28;20345;-71
2021/12/19 01:51:06;;;;;;;8.65;3.22;;;6.90;94.90;;;;;;4999501;28;20066;-72
2021/12/19 01:53:32;;;;;;;9.93;2.90;;;6.90;95.00;;;;;;5004843;28;20069;-71
2021/12/19 01:55:58;;;;;;;11.13;2.92;;;6.90;94.80;;;;;;4988773;28;20392;-71
2021/12/19 01:58:23;;;;;;;11.95;3.22;;;7.00;94.30;;;;;;4996380;28;20031;-71
2021/12/19 02:00:53;;;;;;;23.33;4.00;;;7.00;94.20;;;;;;4994778;28;20033;-71
2021/12/19 02:03:20;;;;;;;8.70;2.63;;;7.00;94.40;;;;;;4996840;28;20030;-71
2021/12/19 02:05:46;;;;;;;11.38;3.30;;;6.90;94.60;;;;;;4995631;28;20053;-71
2021/12/19 02:08:13;;;;;;;8.77;3.05;;;6.90;94.60;;;;;;5001408;28;20105;-71
2021/12/19 02:10:40;;;;;;;14.15;3.85;;;6.90;94.80;;;;;;5003980;28;20503;-71
2021/12/19 02:13:07;;;;;;;11.88;3.72;;;6.90;95.10;;;;;;5013312;28;20038;-71
2021/12/19 02:15:34;;;;;;;18.67;4.38;;;6.90;95.30;;;;;;5001438;28;20116;-71
2021/12/19 02:18:22;;;;;;;12.57;3.83;;;6.90;95.30;;;;;;4980634;28;20450;-71
2021/12/19 02:20:52;;;;;;;13.23;3.22;;;6.90;95.30;;;;;;5001615;28;20050;-70
2021/12/19 02:23:19;;;;;;;10.00;3.15;;;6.90;94.90;;;;;;4999080;28;20026;-71
2021/12/19 02:25:45;;;;;;;15.18;4.35;;;6.90;94.20;;;;;;5000857;28;20045;-71
2021/12/19 02:28:10;;;;;;;12.13;3.35;;;6.90;94.30;;;;;;4998286;28;20067;-71
2021/12/19 02:30:37;;;;;;;15.38;3.80;;;6.90;94.40;;;;;;5001894;28;20033;-71
2021/12/19 02:33:06;;;;;;;11.80;3.38;;;6.90;94.70;;;;;;4994912;28;20088;-71
2021/12/19 02:35:34;;;;;;;12.60;3.53;;;6.80;94.90;;;;;;4993597;28;20030;-71
2021/12/19 02:48:26;;;;;;;15.80;3.90;;;6.80;95.50;;;;;;5005127;28;20440;-71
2021/12/19 02:50:53;;;;;;;13.93;3.35;;;6.80;95.30;;;;;;5007277;28;20049;-71
2021/12/19 02:53:34;;;;;;;15.13;3.53;;;6.80;95.40;;;;;;5000490;28;20117;-71
2021/12/19 02:56:02;;;;;;;13.50;3.70;;;6.80;95.50;;;;;;5000286;28;20071;-71
2021/12/19 02:58:29;;;;;;;12.23;4.15;;;6.80;95.70;;;;;;5009254;28;20036;-71
2021/12/19 03:00:56;;;;;;;17.55;4.82;;;6.80;95.80;;;;;;4992250;28;20141;-72
2021/12/19 03:03:22;;;;;;;18.35;4.63;;;6.80;95.70;;;;;;4988583;28;20426;-72
2021/12/19 03:05:47;;;;;;;14.63;3.80;;;6.80;95.70;;;;;;5004604;28;20034;-71
2021/12/19 03:08:13;;;;;;;15.93;4.55;;;6.80;95.70;;;;;;5017181;28;20029;-71
2021/12/19 03:11:23;;;;;;;12.82;3.38;;;6.80;95.50;;;;;;5010171;28;20022;-70
2021/12/19 03:19:12;;;;;;;13.30;4.25;;;6.90;95.10;;;;;;4990741;28;20068;-72
2021/12/19 03:21:39;;;;;;;14.60;3.80;;;6.90;95.20;;;;;;4995793;28;20033;-72
2021/12/19 03:24:05;;;;;;;17.80;3.25;;;6.80;95.30;;;;;;5003269;28;20072;-71
2021/12/19 03:26:30;;;;;;;14.60;3.88;;;6.80;95.40;;;;;;4993676;28;20049;-72
2021/12/19 03:28:56;;;;;;;16.02;3.72;;;6.80;95.40;;;;;;5015217;28;20113;-71
2021/12/19 03:31:21;;;;;;;13.07;3.60;;;6.90;95.20;;;;;;4990839;28;20378;-72
2021/12/19 03:33:47;;;;;;;14.30;3.72;;;6.90;95.30;;;;;;4994593;28;20038;-71
2021/12/19 03:36:13;;;;;;;15.98;4.30;;;6.80;95.50;;;;;;4990415;28;20028;-71
2021/12/19 03:38:42;;;;;;;15.35;3.25;;;6.80;95.80;;;;;;5004350;28;20103;-71
2021/12/19 03:41:21;;;;;;;16.55;3.40;;;6.80;95.80;;;;;;4999013;28;20030;-71
2021/12/19 03:43:47;;;;;;;12.15;4.05;;;6.80;95.80;;;;;;4997644;28;20169;-71
2021/12/19 03:46:14;;;;;;;12.23;3.75;;;6.80;95.90;;;;;;4998766;28;20177;-71
2021/12/19 03:48:39;;;;;;;15.25;4.38;;;6.80;96.00;;;;;;5003451;28;20045;-71
2021/12/19 03:51:05;;;;;;;14.80;3.85;;;6.80;96.20;;;;;;4996318;28;20381;-71
2021/12/19 03:53:32;;;;;;;16.88;4.32;;;6.80;96.20;;;;;;4991029;28;20163;-71
2021/12/19 03:55:57;;;;;;;11.57;3.95;;;6.80;96.20;;;;;;4997045;28;20018;-71
2021/12/19 03:58:23;;;;;;;12.07;2.50;;;6.80;96.10;;;;;;5000926;28;20505;-71
2021/12/19 04:00:50;;;;;;;16.20;4.25;;;6.80;96.00;;;;;;4994398;28;20125;-72
2021/12/19 04:03:19;;;;;;;18.63;4.72;;;6.80;96.00;;;;;;5002382;28;20022;-71
2021/12/19 04:05:46;;;;;;;18.10;4.40;;;6.80;96.10;;;;;;4990067;28;20021;-71
2021/12/19 04:08:12;;;;;;;12.27;3.42;;;6.80;96.10;;;;;;5001265;28;20094;-71
2021/12/19 04:10:38;;;;;;;15.13;3.85;;;6.80;96.20;;;;;;4997863;28;20148;-72
2021/12/19 04:13:04;;;;;;;15.73;4.57;;;6.80;96.20;;;;;;5015657;28;20732;-71
2021/12/19 04:15:30;;;;;;;18.35;4.20;;;6.80;96.30;;;;;;4989380;28;20414;-72
2021/12/19 04:17:55;;;;;;;18.45;4.45;;;6.80;96.20;;;;;;4971198;28;20098;-71
2021/12/19 04:20:22;;;;;;;14.38;4.28;;;6.80;96.00;;;;;;4997273;28;20037;-71
2021/12/19 04:22:49;;;;;;;10.60;2.80;;;6.80;95.90;;;;;;4990853;28;20450;-71
2021/12/19 04:25:15;;;;;;;15.85;5.22;;;6.90;95.40;;;;;;4994750;28;20030;-71
2021/12/19 04:27:41;;;;;;;11.02;3.75;;;6.90;95.20;;;;;;5000794;28;20676;-71
2021/12/19 04:30:10;;;;;;;12.27;5.05;;;6.90;95.00;;;;;;5002180;28;20091;-71
2021/12/19 04:32:41;;;;;;;19.90;4.88;;;6.90;95.10;;;;;;4996750;28;20389;-71
2021/12/19 04:35:09;;;;;;;14.88;4.47;;;6.90;95.10;;;;;;5001558;28;20641;-72
2021/12/19 04:38:12;;;;;;;16.40;4.38;;;6.90;95.10;;;;;;5002600;28;20106;-71
2021/12/19 04:40:33;;;;;;;9.00;4.38;;;6.90;95.20;;;;;;4985454;28;20413;-71
2021/12/19 04:44:01;;;;;;;13.63;3.90;;;6.90;95.20;;;;;;4994630;28;20048;-71
2021/12/19 04:51:44;;;;;;;13.73;4.03;;;6.90;95.60;;;;;;4999547;28;20507;-71
2021/12/19 04:54:26;;;;;;;13.35;4.05;;;6.80;95.60;;;;;;4996929;28;20034;-71
2021/12/19 05:02:16;;;;;;;6.65;2.15;;;6.80;94.70;;;;;;4996068;28;20095;-71
2021/12/19 05:15:28;;;;;;;5.68;1.25;;;6.80;94.20;;;;;;5003035;28;20212;-73
2021/12/19 05:17:59;;;;;;;5.28;1.48;;;6.80;94.40;;;;;;4967010;28;20044;-71
2021/12/19 05:20:28;;;;;;;3.08;1.52;;;6.70;94.90;;;;;;5002867;28;20500;-67
2021/12/19 05:22:59;;;;;;;2.63;0.77;;;6.70;95.10;;;;;;5007693;28;20420;-67
2021/12/19 05:25:25;;;;;;;5.15;1.30;;;6.70;95.40;;;;;;4993061;28;20484;-67
2021/12/19 05:27:53;;;;;;;6.07;1.45;;;6.70;95.60;;;;;;4998291;28;20041;-67
2021/12/19 05:30:20;;;;;;;2.78;1.15;;;6.60;95.80;;;;;;4991084;28;20019;-67
2021/12/19 05:32:48;;;;;;;5.50;1.77;;;6.60;95.90;;;;;;4995729;28;20351;-67
2021/12/19 05:35:20;;;;;;;4.68;1.50;;;6.60;96.00;;;;;;4993008;28;20023;-67
2021/12/19 05:45:58;;;;;;;7.25;1.30;;;6.60;96.00;;;;;;4994197;28;20037;-66
2021/12/19 05:48:23;;;;;;;5.18;1.33;;;6.60;96.20;;;;;;4998792;28;20034;-66
2021/12/19 05:50:49;;;;;;;6.78;1.40;;;6.60;96.10;;;;;;4997758;28;20374;-66
2021/12/19 05:53:15;;;;;;;8.25;1.67;;;6.50;96.40;;;;;;4999842;28;20046;-67
2021/12/19 05:55:41;;;;;;;4.70;1.20;;;6.50;96.60;;;;;;4993624;28;20510;-67
2021/12/19 05:58:07;;;;;;;6.88;1.25;;;6.50;96.80;;;;;;5001663;28;20630;-66
2021/12/19 06:00:33;;;;;;;4.53;1.10;;;6.50;96.90;;;;;;4994335;28;20081;-67
2021/12/19 06:03:00;;;;;;;6.13;1.58;;;6.50;97.10;;;;;;4990860;28;20033;-67
2021/12/19 06:05:26;;;;;;;3.78;1.20;;;6.50;97.20;;;;;;4994722;28;20035;-67
2021/12/19 06:07:51;;;;;;;7.65;1.20;;;6.50;97.40;;;;;;4988846;28;20037;-66
2021/12/19 06:10:17;;;;;;;4.90;1.27;;;6.50;97.50;;;;;;4998226;28;20489;-67
2021/12/19 06:12:43;;;;;;;3.83;1.10;;;6.40;97.60;;;;;;4996312;28;20030;-67
2021/12/19 06:15:10;;;;;;;7.35;1.27;;;6.50;97.60;;;;;;4997870;28;20413;-67
2021/12/19 06:17:37;;;;;;;7.82;1.42;;;6.50;97.70;;;;;;4980490;28;20470;-67
2021/12/19 06:20:04;;;;;;;4.80;1.23;;;6.40;97.70;;;;;;5001289;28;20432;-65
2021/12/19 06:22:29;;;;;;;8.07;1.50;;;6.40;97.70;;;;;;4994133;28;20092;-66
2021/12/19 06:24:55;;;;;;;7.18;1.70;;;6.40;97.60;;;;;;4994863;28;20033;-65
2021/12/19 06:27:20;;;;;;;5.47;1.50;;;6.50;97.60;;;;;;4989433;28;20113;-67
2021/12/19 06:29:46;;;;;;;9.65;1.50;;;6.50;97.40;;;;;;5000647;28;20116;-66
2021/12/19 06:32:12;;;;;;;9.23;1.60;;;6.40;97.40;;;;;;4998970;28;20058;-66
2021/12/19 06:34:37;;;;;;;10.43;1.60;;;6.50;97.40;;;;;;4994185;28;20030;-67
2021/12/19 06:37:08;;;;;;;8.32;1.83;;;6.50;96.90;;;;;;4992897;28;20041;-66
2021/12/19 06:39:34;;;;;;;7.35;1.48;;;6.50;96.70;;;;;;4998490;28;20732;-66
2021/12/19 06:42:00;;;;;;;7.75;1.70;;;6.50;96.70;;;;;;4986223;28;20100;-66
2021/12/19 06:44:26;;;;;;;8.90;1.67;;;6.50;96.70;;;;;;4992881;28;20493;-66
2021/12/19 06:46:51;;;;;;;5.22;1.48;;;6.60;96.50;;;;;;4988851;28;20117;-66
2021/12/19 06:49:17;;;;;;;7.35;1.40;;;6.60;96.40;;;;;;4994290;28;20103;-66
2021/12/19 06:51:42;;;;;;;8.32;1.95;;;6.60;96.30;;;;;;4994002;28;20026;-66
2021/12/19 06:54:08;;;;;;;11.25;2.05;;;6.70;95.80;;;;;;4994430;28;20053;-66
2021/12/19 06:56:34;;;;;;;9.43;1.45;;;6.70;95.90;;;;;;4993673;28;20106;-66
2021/12/19 06:59:00;;;;;;;10.48;2.22;;;6.70;96.00;;;;;;5011356;28;20049;-66
2021/12/19 07:01:26;;;;;;;8.27;1.85;;;6.70;96.00;;;;;;4997992;28;20093;-66
2021/12/19 07:03:51;;;;;;;7.00;1.73;;;6.70;96.20;;;;;;4996451;28;20030;-66
2021/12/19 07:06:17;;;;;;;10.60;1.92;;;6.70;96.00;;;;;;5006554;28;20033;-66
2021/12/19 07:08:42;;;;;;;11.48;2.20;;;6.80;95.90;;;;;;5001814;28;20032;-66
2021/12/19 07:11:08;;;;;;;8.48;1.83;;;6.70;96.20;;;;;;5002262;28;20108;-66
2021/12/19 07:13:33;;;;;;;6.63;1.50;;;6.70;96.50;;;;;;5004452;28;20037;-66
2021/12/19 07:15:59;;;;;;;16.55;2.13;;;6.70;96.40;;;;;;4997232;28;20034;-66
2021/12/19 07:18:25;;;;;;;4.80;1.30;;;6.70;96.30;;;;;;4980739;28;20136;-66
2021/12/19 07:20:50;;;;;;;11.43;2.00;;;6.70;94.90;;;;;;5000884;28;20157;-66
2021/12/19 07:23:18;;;;;;;8.27;1.48;;;6.70;94.70;;;;;;4987489;28;20062;-66
2021/12/19 07:25:44;;;;;;;8.27;1.75;;;6.80;94.50;;;;;;4998753;28;20030;-66
2021/12/19 07:28:11;;;;;;;6.35;1.52;;;6.80;93.80;;;;;;5004689;28;20055;-66
2021/12/19 07:30:37;;;;;;;7.35;1.40;;;6.80;93.80;;;;;;5003899;28;20085;-66
2021/12/19 07:33:04;;;;;;;6.05;1.60;;;6.70;94.20;;;;;;4993920;28;20046;-66
2021/12/19 07:35:33;;;;;;;17.33;1.80;;;6.80;94.30;;;;;;4993313;28;20023;-66
2021/12/19 07:37:59;;;;;;;9.45;2.10;;;6.80;94.90;;;;;;4993346;28;20069;-66
2021/12/19 07:40:28;;;;;;;8.50;1.50;;;6.70;95.20;;;;;;4992296;28;20545;-66
2021/12/19 07:42:58;;;;;;;13.18;2.22;;;6.70;95.70;;;;;;4997309;28;20403;-66
2021/12/19 07:45:23;;;;;;;9.20;1.98;;;6.60;96.20;;;;;;4992643;28;20487;-66
2021/12/19 07:47:49;;;;;;;9.45;2.13;;;6.60;96.60;;;;;;4994167;28;20096;-66
2021/12/19 07:50:15;;;;;;;10.00;1.95;;;6.60;96.70;;;;;;4989174;28;20045;-66
2021/12/19 07:52:42;;;;;;;9.68;1.52;;;6.60;96.60;;;;;;5002674;28;20022;-66
2021/12/19 07:55:08;;;;;;;11.48;1.48;;;6.60;96.70;;;;;;4995426;28;20025;-66
2021/12/19 07:57:34;;;;;;;9.05;2.10;;;6.60;96.70;;;;;;4997701;28;20157;-66
2021/12/19 08:00:00;;;;;;;10.18;2.03;;;6.60;96.80;;;;;;4992021;28;20033;-66
2021/12/19 08:02:27;;;;;;;7.13;1.85;;;6.60;96.80;;;;;;4990460;28;20045;-66
2021/12/19 08:04:52;;;;;;;11.40;1.90;;;6.60;96.90;;;;;;4997587;28;20052;-66
2021/12/19 08:07:23;;;;;;;10.98;2.40;;;6.60;96.90;;;;;;5000499;28;20461;-66
2021/12/19 08:12:43;;;;;;;16.23;1.95;;;6.60;96.80;;;;;;4950730;28;20332;-66
2021/12/19 08:15:10;;;;;;;12.52;1.38;;;6.60;96.60;;;;;;4996893;28;20084;-66
2021/12/19 08:17:37;;;;;;;13.43;2.03;;;6.60;96.70;;;;;;5011084;28;20130;-66
2021/12/19 08:20:06;;;;;;;7.78;1.40;;;6.60;96.80;;;;;;4974006;28;20042;-66
2021/12/19 08:22:33;;;;;;;8.40;1.40;;;6.60;96.70;;;;;;4992540;28;20080;-66
2021/12/19 08:24:59;;;;;;;9.30;2.08;;;6.70;95.80;;;;;;4997005;28;20429;-67
2021/12/19 08:27:26;;;;;;;14.15;2.25;;;6.80;95.10;;;;;;4999222;28;20041;-66
2021/12/19 08:29:53;;;;;;;10.70;2.13;;;6.70;95.40;;;;;;4992804;28;20068;-66
2021/12/19 08:32:19;;;;;;;13.85;2.00;;;6.70;95.70;;;;;;4990794;28;20177;-66
2021/12/19 08:34:45;;;;;;;7.43;1.83;;;6.70;95.70;;;;;;4995844;28;20057;-67
2021/12/19 08:37:10;;;;;;;12.57;1.73;;;6.70;95.80;;;;;;4997193;28;20165;-66
2021/12/19 08:39:38;;;;;;;15.38;2.22;;;6.70;95.70;;;;;;4992374;28;20033;-66
2021/12/19 08:42:06;;;;;;;12.00;2.40;;;6.80;95.50;;;;;;4996551;28;20060;-66
2021/12/19 08:44:32;;;;;;;8.98;1.70;;;6.80;95.40;;;;;;5010049;28;20048;-66
2021/12/19 08:46:58;;;;;;;18.50;2.47;;;6.70;95.60;;;;;;4991920;28;20096;-67
2021/12/19 08:49:23;;;;;;;11.25;1.63;;;6.80;95.30;;;;;;4996617;28;20026;-66
2021/12/19 08:51:49;;;;;;;14.07;1.75;;;6.90;94.90;;;;;;4989574;28;20477;-66
2021/12/19 08:54:14;;;;;;;14.73;2.25;;;6.90;94.60;;;;;;4995492;28;20034;-66
2021/12/19 08:56:40;;;;;;;14.60;2.03;;;6.90;94.80;;;;;;4987772;28;20782;-67
2021/12/19 08:59:06;;;;;;;12.98;1.88;;;6.90;94.80;;;;;;4989418;28;20045;-66
2021/12/19 09:01:32;;;;;;;10.40;2.08;;;6.90;94.90;;;;;;4998377;28;24077;-66
2021/12/19 09:03:58;;;;;;;11.55;1.90;;;6.90;95.20;;;;;;4999497;28;22804;-66
2021/12/19 09:06:23;;;;;;;10.90;1.83;;;6.80;95.40;;;;;;4987989;28;20039;-66
2021/12/19 09:08:49;;;;;;;11.90;1.88;;;6.90;95.40;;;;;;4996917;28;20038;-66
2021/12/19 09:11:14;;;;;;;12.18;1.83;;;6.90;95.50;;;;;;5005084;28;20113;-66
2021/12/19 09:13:40;;;;;;;9.23;1.73;;;6.90;95.50;;;;;;4999999;28;20029;-66
2021/12/19 09:16:05;;;;;;;10.98;2.22;;;6.80;95.60;;;;;;4987099;28;20037;-66
2021/12/19 09:18:31;;;;;;;11.40;1.98;;;6.90;95.50;;;;;;4988006;28;20528;-66
2021/12/19 09:20:57;;;;;;;10.82;2.17;;;6.90;95.30;;;;;;4972947;28;20056;-66
2021/12/19 09:23:23;;;;;;;10.38;2.15;;;7.00;94.80;;;;;;4996872;28;20030;-66
2021/12/19 09:25:49;;;;;;;10.68;2.08;;;7.00;94.60;;;;;;4995933;28;20025;-66
2021/12/19 09:28:15;;;;;;;13.48;2.25;;;7.00;94.10;;;;;;4993251;28;20102;-66
2021/12/19 09:30:44;;;;;;;13.18;2.47;;;7.00;93.90;;;;;;4993429;28;20034;-66
2021/12/19 09:33:09;;;;;;;9.20;2.00;;;7.10;93.30;;;;;;4991250;28;20458;-66
2021/12/19 09:35:35;;;;;;;10.90;2.10;;;7.10;93.20;;;;;;4987987;28;20101;-66
2021/12/19 09:38:03;;;;;;;10.60;1.60;;;7.10;93.40;;;;;;4993633;28;20030;-68
2021/12/19 09:40:37;;;;;;;12.75;2.05;;;7.10;93.10;;;;;;4991376;28;20034;-67
2021/12/19 09:43:09;;;;;;;12.00;1.83;;;7.20;92.60;;;;;;4989152;28;20045;-66
2021/12/19 09:45:34;;;;;;;12.20;2.50;;;7.30;92.50;;;;;;4999659;28;20017;-66
2021/12/19 09:48:00;;;;;;;13.48;2.10;;;7.30;92.30;;;;;;4935498;28;20518;-66
2021/12/19 09:50:30;;;;;;;10.65;1.90;;;7.30;92.10;;;;;;4990333;28;20029;-66
2021/12/19 09:52:56;;;;;;;17.73;2.33;;;7.30;92.30;;;;;;4997099;28;20021;-66
2021/12/19 09:55:22;;;;;;;9.70;2.30;;;7.30;92.40;;;;;;4990778;28;20485;-66
2021/12/19 09:57:53;;;;;;;13.18;1.75;;;7.30;92.40;;;;;;4995548;28;20026;-66
2021/12/19 10:00:19;;;;;;;8.55;1.52;;;7.30;92.10;;;;;;4994158;28;20080;-66
2021/12/19 10:02:45;;;;;;;11.30;1.98;;;7.40;91.80;;;;;;4994364;28;20034;-66
2021/12/19 10:05:18;;;;;;;13.63;2.95;;;7.40;92.10;;;;;;4997891;28;20436;-66
2021/12/19 10:07:49;;;;;;;15.13;1.88;;;7.40;92.10;;;;;;4988260;28;20493;-66
2021/12/19 10:10:24;;;;;;;10.73;2.35;;;7.50;91.90;;;;;;4993646;28;20034;-66
2021/12/19 10:12:53;;;;;;;16.92;2.22;;;7.40;92.00;;;;;;4988034;28;20030;-66
2021/12/19 10:15:32;;;;;;;10.32;1.60;;;7.50;92.10;;;;;;5000046;28;21415;-66
2021/12/19 10:18:11;;;;;;;11.93;2.50;;;7.50;92.10;;;;;;4993564;28;20018;-67
2021/12/19 10:20:44;;;;;;;7.95;1.90;;;7.40;92.40;;;;;;4971993;28;20139;-67
2021/12/19 10:23:19;;;;;;;7.85;1.60;;;7.50;92.60;;;;;;4992326;28;20026;-67
2021/12/19 10:25:54;;;;;;;14.38;2.38;;;7.50;92.50;;;;;;4992188;28;20121;-66
2021/12/19 10:28:20;;;;;;;10.30;1.80;;;7.50;92.40;;;;;;4991238;28;20065;-66
2021/12/19 10:30:49;;;;;;;8.55;1.65;;;7.50;92.40;;;;;;4994407;28;20139;-66
2021/12/19 10:33:18;;;;;;;9.05;1.83;;;7.50;92.30;;;;;;5002636;28;20037;-66
2021/12/19 10:35:53;;;;;;;11.25;2.30;;;7.50;92.30;;;;;;5002830;28;20022;-66
2021/12/19 10:38:24;;;;;;;13.75;1.95;;;7.60;92.20;;;;;;4991280;28;20088;-66
2021/12/19 10:41:00;;;;;;;6.70;2.30;;;7.60;92.10;;;;;;4992400;28;20049;-66
2021/12/19 10:43:30;;;;;;;7.55;2.58;;;7.60;92.10;;;;;;4995557;28;20121;-66
2021/12/19 10:46:01;;;;;;;10.05;2.33;;;7.60;91.90;;;;;;5016639;28;20102;-65
2021/12/19 10:48:38;;;;;;;;;;;7.60;91.80;;;;;;4992118;28;20064;-67
2021/12/19 10:51:16;;;;;;;14.45;2.20;;;7.60;92.00;;;;;;4996289;28;19918;-67
2021/12/19 10:53:52;;;;;;;8.68;2.00;;;7.60;91.90;;;;;;4996045;28;20152;-67
2021/12/19 10:56:22;;;;;;;10.25;2.13;;;7.60;91.90;;;;;;4993882;28;20133;-66
2021/12/19 10:58:57;;;;;;;8.43;1.73;;;7.60;91.70;;;;;;4991855;28;20096;-66
2021/12/19 11:01:38;;;;;;;13.40;2.38;;;7.60;91.80;;;;;;4990435;28;20169;-67
2021/12/19 11:04:09;;;;;;;12.88;1.90;;;7.70;91.70;;;;;;4995192;28;20627;-67
2021/12/19 11:06:41;;;;;;;15.02;2.42;;;7.70;91.50;;;;;;4998011;28;20081;-67
2021/12/19 11:09:18;;;;;;;11.80;2.10;;;7.70;91.30;;;;;;4991098;28;20021;-67
2021/12/19 11:12:02;;;;;;;12.65;1.83;;;7.80;91.20;;;;;;4994389;28;20045;-67
2021/12/19 11:14:31;;;;;;;16.13;2.13;;;7.80;91.00;;;;;;4995202;28;20113;-66
2021/12/19 11:17:02;;;;;;;9.32;2.05;;;7.80;91.10;;;;;;4996615;28;20112;-68
2021/12/19 11:19:28;;;;;;;;;;;7.70;91.40;;;;;;4969174;28;20074;-68
2021/12/19 11:21:54;;;;;;;12.90;2.60;;;7.70;91.70;;;;;;4991200;28;19918;-66
2021/12/19 11:24:22;;;;;;;8.48;2.00;;;7.70;91.90;;;;;;4995012;28;20034;-66
2021/12/19 11:26:51;;;;;;;12.60;1.60;;;7.70;92.20;;;;;;4999262;28;20053;-66
2021/12/19 11:29:17;;;;;;;13.40;2.40;;;7.60;92.20;;;;;;4989487;28;20096;-66
2021/12/19 11:31:47;;;;;;;10.23;2.15;;;7.60;92.00;;;;;;4995814;28;20121;-67
2021/12/19 11:34:31;;;;;;;4.43;1.23;;;7.60;92.00;;;;;;4993802;28;20022;-68
2021/12/19 11:37:12;;;;;;;14.80;1.60;;;7.70;91.50;;;;;;4999216;28;20053;-66
2021/12/19 11:39:41;;;;;;;7.80;1.67;;;7.70;91.90;;;;;;4996898;28;20140;-67
2021/12/19 11:42:16;;;;;;;12.05;2.00;;;7.70;92.00;;;;;;4987599;28;20038;-68
2021/12/19 11:47:51;;;;;;;12.60;1.42;;;7.70;92.00;;;;;;4995964;28;20490;-67
2021/12/19 11:50:29;;;;;;;13.02;2.10;;;7.70;92.00;;;;;;4994530;28;20070;-68
2021/12/19 11:53:18;;;;;;;8.32;1.58;;;7.70;92.20;;;;;;4996232;28;20090;-67
2021/12/19 11:56:08;;;;;;;8.45;1.63;;;7.70;92.10;;;;;;4995383;28;20030;-68
2021/12/19 11:58:51;;;;;;;11.52;1.80;;;7.70;92.40;;;;;;5000146;28;20256;-67
2021/12/19 12:01:29;;;;;;;8.85;2.17;;;7.70;92.70;;;;;;4997916;28;20667;-68
2021/12/19 12:04:17;;;;;;;11.55;3.25;;;7.60;93.00;;;;;;4989126;28;20105;-68
2021/12/19 12:06:53;;;;;;;6.85;2.17;;;7.60;93.30;;;;;;4995089;28;20141;-67
2021/12/19 12:09:21;;;;;;;17.05;6.40;;;7.60;93.50;;;;;;4992916;28;20026;-70
2021/12/19 12:11:58;;;;;;;12.63;1.80;;;7.60;93.70;;;;;;4994951;28;20049;-67
2021/12/19 12:14:28;;;;;;;8.23;1.80;;;7.60;93.70;;;;;;4993202;28;20033;-66
2021/12/19 12:17:05;;;;;;;9.38;2.15;;;7.60;93.40;;;;;;4992703;28;20060;-67
2021/12/19 12:19:43;;;;;;;7.32;1.30;;;7.60;93.70;;;;;;4989173;28;20393;-69
2021/12/19 12:22:36;;;;;;;14.57;2.50;;;7.70;93.40;;;;;;4997191;28;20722;-67
2021/12/19 12:25:09;;;;;;;18.75;6.28;;;7.60;93.60;;;;;;4995291;28;20038;-68
2021/12/19 12:27:37;;;;;;;11.15;1.40;;;7.60;93.80;;;;;;4994976;28;20656;-67
2021/12/19 12:30:05;;;;;;;6.45;1.60;;;7.70;93.70;;;;;;4994507;28;20088;-67
2021/12/19 12:32:31;;;;;;;7.35;1.60;;;7.70;93.10;;;;;;4990937;28;20061;-66
2021/12/19 12:34:57;;;;;;;11.43;1.50;;;7.80;92.30;;;;;;4989951;28;20058;-68
2021/12/19 12:37:23;;;;;;;11.95;2.30;;;7.90;91.70;;;;;;4992603;28;20037;-67
2021/12/19 12:40:15;;;;;;;9.25;2.20;;;8.00;91.20;;;;;;4992951;28;20030;-67
2021/12/19 12:42:58;;;;;;;14.32;2.13;;;8.00;90.70;;;;;;5000889;28;20038;-68
2021/12/19 12:45:24;;;;;;;7.57;1.67;;;7.90;90.90;;;;;;4999482;28;20061;-67
2021/12/19 12:47:50;;;;;;;8.13;2.25;;;7.90;91.40;;;;;;4988433;28;20073;-68
2021/12/19 12:50:15;;;;;;;9.82;1.73;;;7.80;92.10;;;;;;4995495;28;20663;-68
2021/12/19 12:52:41;;;;;;;11.18;1.70;;;7.80;92.10;;;;;;5001019;28;20642;-69
2021/12/19 12:55:07;;;;;;;8.45;2.25;;;7.80;91.00;;;;;;4995890;28;20025;-68
2021/12/19 12:57:35;;;;;;;11.05;2.28;;;7.90;90.70;;;;;;4996013;28;20094;-68
2021/12/19 13:00:01;;;;;;;11.43;1.77;;;7.90;89.70;;;;;;4990434;28;20061;-67
2021/12/19 13:02:40;;;;;;;7.63;2.33;;;7.90;89.10;;;;;;4990521;28;20062;-67
2021/12/19 13:05:12;;;;;;;11.00;2.03;;;7.90;88.10;;;;;;4994899;28;20080;-68
2021/12/19 13:07:38;;;;;;;9.73;1.83;;;8.00;88.20;;;;;;4988802;28;20022;-68
2021/12/19 13:10:04;;;;;;;11.77;1.98;;;7.90;88.50;;;;;;4989084;28;20105;-68
2021/12/19 13:12:35;;;;;;;11.02;2.33;;;7.90;89.00;;;;;;4992447;28;20070;-68
2021/12/19 13:15:02;;;;;;;;;;;7.90;88.60;;;;;;4998046;28;20028;-68
2021/12/19 13:17:36;;;;;;;10.50;1.85;;;8.00;87.50;;;;;;4991874;28;19921;-69
2021/12/19 13:20:13;;;;;;;12.15;2.20;;;7.90;87.30;;;;;;4987450;28;20038;-69
2021/12/19 13:22:50;;;;;;;10.32;1.67;;;8.00;87.00;;;;;;4996526;28;20133;-68
2021/12/19 13:25:18;;;;;;;9.65;1.35;;;8.10;85.60;;;;;;4992743;28;20030;-69
2021/12/19 13:27:45;;;;;;;9.43;1.92;;;8.00;85.70;;;;;;4995334;28;20038;-68
2021/12/19 13:30:12;;;;;;;4.85;1.30;;;8.00;86.70;;;;;;4993565;28;20033;-68
2021/12/19 13:32:49;;;;;;;14.82;2.13;;;7.90;87.20;;;;;;4996667;28;20041;-68
2021/12/19 13:35:26;;;;;;;9.10;1.92;;;7.90;87.50;;;;;;4996779;28;20117;-68
2021/12/19 13:38:02;;;;;;;16.67;1.88;;;7.90;87.00;;;;;;4995168;28;20089;-69
2021/12/19 13:40:38;;;;;;;9.85;2.40;;;8.00;86.60;;;;;;4986827;28;20048;-68
2021/12/19 13:43:06;;;;;;;12.45;2.10;;;8.00;87.00;;;;;;5001919;28;20548;-69
2021/12/19 13:45:41;;;;;;;13.30;1.98;;;7.90;86.20;;;;;;4993054;28;20039;-67
2021/12/19 13:48:12;;;;;;;9.18;1.25;;;7.90;86.60;;;;;;4986906;28;20688;-68
2021/12/19 13:50:45;;;;;;;9.35;1.50;;;8.00;85.20;;;;;;4990821;28;20018;-68
2021/12/19 13:53:13;;;;;;;4.93;1.35;;;8.00;85.20;;;;;;4994277;28;20052;-67